createdAt,value
2022-12-13T00:00:22.636Z,10.20
2022-12-13T00:03:28.322Z,9.70
2022-12-13T00:06:35.313Z,9.00
2022-12-13T00:09:43.212Z,9.60
2022-12-13T00:12:48.964Z,8.10
2022-12-13T00:16:00.712Z,9.20
2022-12-13T00:19:06.410Z,9.50
2022-12-13T00:22:12.062Z,12.10
2022-12-13T00:25:19.868Z,11.70
2022-12-13T00:28:25.425Z,12.60
2022-12-13T00:34:58.030Z,14.30
2022-12-13T00:38:03.670Z,10.10
2022-12-13T00:41:17.339Z,13.50
2022-12-13T00:44:22.959Z,12.00
2022-12-13T00:47:28.523Z,13.50
2022-12-13T00:50:34.879Z,13.80
2022-12-13T00:56:45.154Z,11.90
2022-12-13T00:59:51.224Z,11.80
2022-12-13T01:02:57.088Z,12.50
2022-12-13T01:06:17.114Z,12.00
2022-12-13T01:09:27.396Z,11.20
2022-12-13T01:12:33.279Z,12.10
2022-12-13T01:15:43.489Z,12.10
2022-12-13T01:18:49.501Z,11.10
2022-12-13T01:21:59.927Z,11.50
2022-12-13T01:25:06.331Z,11.40
2022-12-13T01:28:11.986Z,11.50
2022-12-13T01:31:20.015Z,11.10
2022-12-13T01:34:27.564Z,10.50
2022-12-13T01:37:33.136Z,11.00
2022-12-13T01:40:48.306Z,10.80
2022-12-13T01:43:57.924Z,11.30
2022-12-13T01:47:03.814Z,10.20
2022-12-13T01:50:13.692Z,9.70
2022-12-13T01:53:23.110Z,9.50
2022-12-13T01:56:37.563Z,9.00
2022-12-13T01:59:45.241Z,8.70
2022-12-13T02:02:52.042Z,9.30
2022-12-13T02:06:03.738Z,9.40
2022-12-13T02:09:10.209Z,9.20
2022-12-13T02:12:16.098Z,8.90
2022-12-13T02:15:23.162Z,8.80
2022-12-13T02:18:44.014Z,9.30
2022-12-13T02:22:00.741Z,7.80
2022-12-13T02:25:28.899Z,8.50
2022-12-13T02:28:50.163Z,8.00
2022-12-13T02:32:03.084Z,8.00
2022-12-13T02:35:15.622Z,7.90
2022-12-13T02:38:31.080Z,7.70
2022-12-13T02:41:42.053Z,7.80
2022-12-13T02:44:51.907Z,7.70
2022-12-13T02:48:01.340Z,8.00
2022-12-13T02:51:10.402Z,7.00
2022-12-13T02:54:16.132Z,7.00
2022-12-13T02:57:35.051Z,8.10
2022-12-13T03:00:50.371Z,8.20
2022-12-13T03:04:11.588Z,7.80
2022-12-13T03:07:29.733Z,8.30
2022-12-13T03:10:43.475Z,8.30
2022-12-13T03:13:53.785Z,8.40
2022-12-13T03:17:02.152Z,8.70
2022-12-13T03:20:12.652Z,8.90
2022-12-13T03:23:29.292Z,8.60
2022-12-13T03:26:35.645Z,8.30
2022-12-13T03:32:45.361Z,7.90
2022-12-13T03:35:51.524Z,8.00
2022-12-13T03:38:57.636Z,7.60
2022-12-13T03:42:03.340Z,7.90
2022-12-13T03:45:10.882Z,8.20
2022-12-13T03:48:22.141Z,8.00
2022-12-13T03:51:29.204Z,7.70
2022-12-13T03:54:34.886Z,7.40
2022-12-13T03:57:40.610Z,6.70
2022-12-13T04:00:46.568Z,8.00
2022-12-13T04:03:52.220Z,8.10
2022-12-13T04:06:57.872Z,6.60
2022-12-13T04:10:03.368Z,5.20
2022-12-13T04:13:34.704Z,7.70
2022-12-13T04:16:40.684Z,6.90
2022-12-13T04:19:46.384Z,7.90
2022-12-13T04:22:52.138Z,7.80
2022-12-13T04:25:57.996Z,8.80
2022-12-13T04:46:45.129Z,9.70
2022-12-13T04:49:50.780Z,8.40
2022-12-13T04:52:56.329Z,8.40
2022-12-13T04:56:03.622Z,8.40
2022-12-13T04:59:09.988Z,8.40
2022-12-13T05:05:29.746Z,7.50
2022-12-13T05:08:35.500Z,7.30
2022-12-13T05:11:45.975Z,7.20
2022-12-13T05:14:51.980Z,6.50
2022-12-13T05:17:57.620Z,6.40
2022-12-13T05:21:06.354Z,6.20
2022-12-13T05:24:12.081Z,6.30
2022-12-13T05:27:24.881Z,6.70
2022-12-13T05:30:32.124Z,6.60
2022-12-13T05:33:38.063Z,5.80
2022-12-13T05:36:43.719Z,6.80
2022-12-13T05:39:49.257Z,6.90
2022-12-13T05:43:01.404Z,6.70
2022-12-13T05:46:08.102Z,7.20
2022-12-13T05:49:13.898Z,6.60
2022-12-13T05:52:21.490Z,7.50
2022-12-13T05:55:38.387Z,6.40
2022-12-13T05:58:44.062Z,7.70
2022-12-13T06:01:49.603Z,6.80
2022-12-13T06:04:55.265Z,6.50
2022-12-13T06:08:00.974Z,7.40
2022-12-13T06:11:10.901Z,7.90
2022-12-13T06:14:22.873Z,7.50
2022-12-13T06:17:31.031Z,7.60
2022-12-13T06:20:36.628Z,7.10
2022-12-13T06:23:42.382Z,7.40
2022-12-13T06:26:48.286Z,7.00
2022-12-13T06:29:53.829Z,7.10
2022-12-13T06:32:59.410Z,6.60
2022-12-13T06:36:06.302Z,7.00
2022-12-13T06:39:12.074Z,6.80
2022-12-13T06:42:21.533Z,6.70
2022-12-13T06:45:28.088Z,6.40
2022-12-13T06:48:33.841Z,7.50
2022-12-13T06:51:39.492Z,6.00
2022-12-13T06:54:45.765Z,8.30
2022-12-13T07:01:04.984Z,7.70
2022-12-13T07:04:30.200Z,7.60
2022-12-13T07:10:42.490Z,7.10
2022-12-13T07:13:48.136Z,6.60
2022-12-13T07:16:59.395Z,6.80
2022-12-13T07:20:10.993Z,6.50
2022-12-13T07:23:16.762Z,6.20
2022-12-13T07:26:30.126Z,6.20
2022-12-13T07:29:35.751Z,6.20
2022-12-13T07:32:41.397Z,6.00
2022-12-13T07:35:46.945Z,6.40
2022-12-13T07:39:00.994Z,6.30
2022-12-13T07:42:06.954Z,5.80
2022-12-13T07:45:13.628Z,6.10
2022-12-13T07:48:19.331Z,6.20
2022-12-13T07:51:25.053Z,6.40
2022-12-13T07:54:30.687Z,6.60
2022-12-13T07:57:36.545Z,7.80
2022-12-13T08:00:46.425Z,6.80
2022-12-13T08:03:53.375Z,7.10
2022-12-13T08:06:58.925Z,6.80
2022-12-13T08:10:04.987Z,6.90
2022-12-13T08:13:10.896Z,7.40
2022-12-13T08:16:27.366Z,6.70
2022-12-13T08:19:34.640Z,7.70
2022-12-13T08:22:40.173Z,6.70
2022-12-13T08:25:51.597Z,7.50
2022-12-13T08:28:57.209Z,6.80
2022-12-13T08:32:03.653Z,7.10
2022-12-13T08:35:10.505Z,6.10
2022-12-13T08:38:22.603Z,5.60
2022-12-13T08:41:31.348Z,5.90
2022-12-13T08:44:39.105Z,11.00
2022-12-13T08:47:45.649Z,6.00
2022-12-13T08:50:51.535Z,6.40
2022-12-13T08:54:10.764Z,6.90
2022-12-13T08:57:17.169Z,6.60
2022-12-13T09:00:23.378Z,7.30
2022-12-13T09:03:29.294Z,15.00
2022-12-13T09:06:34.889Z,10.20
2022-12-13T09:09:40.494Z,67.50
2022-12-13T09:12:46.350Z,44.30
2022-12-13T09:15:52.092Z,30.40
2022-12-13T09:18:57.970Z,8.60
2022-12-13T09:22:03.952Z,23.90
2022-12-13T09:25:14.674Z,116.40
2022-12-13T09:28:20.656Z,46.30
2022-12-13T09:31:26.355Z,47.90
2022-12-13T09:34:33.213Z,33.30
2022-12-13T09:37:45.555Z,26.60
2022-12-13T09:40:58.650Z,34.40
2022-12-13T09:44:31.590Z,25.00
2022-12-13T09:47:47.146Z,26.60
2022-12-13T09:51:15.866Z,50.20
2022-12-13T09:54:22.480Z,17.70
2022-12-13T09:57:33.793Z,16.00
2022-12-13T10:00:40.687Z,14.60
2022-12-13T10:03:50.998Z,25.30
2022-12-13T10:06:57.143Z,12.20
2022-12-13T10:10:03.623Z,32.80
2022-12-13T10:13:18.082Z,40.20
2022-12-13T10:16:35.878Z,29.90
2022-12-13T10:19:45.036Z,61.50
2022-12-13T10:23:15.074Z,18.50
2022-12-13T10:29:30.570Z,35.70
2022-12-13T10:32:47.591Z,25.50
2022-12-13T10:36:14.746Z,74.80
2022-12-13T10:39:37.917Z,42.40
2022-12-13T10:42:43.567Z,20.60
2022-12-13T10:46:00.849Z,11.70
2022-12-13T10:49:14.829Z,16.80
2022-12-13T10:52:32.042Z,9.80
2022-12-13T10:55:39.077Z,8.40
2022-12-13T10:58:46.941Z,10.80
2022-12-13T11:01:52.736Z,17.10
2022-12-13T11:04:59.389Z,13.50
2022-12-13T11:08:26.811Z,26.60
2022-12-13T11:11:32.892Z,26.40
2022-12-13T11:14:49.726Z,14.00
2022-12-13T11:17:58.430Z,13.30
2022-12-13T11:21:07.908Z,14.10
2022-12-13T11:24:23.257Z,14.40
2022-12-13T11:27:56.039Z,9.60
2022-12-13T11:31:11.314Z,11.50
2022-12-13T11:34:26.899Z,9.60
2022-12-13T11:37:38.743Z,10.00
2022-12-13T11:40:50.062Z,12.00
2022-12-13T11:43:59.692Z,23.60
2022-12-13T11:47:12.622Z,10.70
2022-12-13T11:50:33.491Z,16.70
2022-12-13T11:53:51.085Z,15.30
2022-12-13T11:57:05.143Z,11.00
2022-12-13T12:00:33.727Z,9.20
2022-12-13T12:03:46.516Z,8.60
2022-12-13T12:07:17.945Z,9.00
2022-12-13T12:10:31.845Z,13.00
2022-12-13T12:13:51.698Z,12.50
2022-12-13T12:16:59.738Z,14.60
2022-12-13T12:20:08.003Z,9.30
2022-12-13T12:23:24.248Z,9.40
2022-12-13T12:29:53.778Z,9.60
2022-12-13T12:33:09.568Z,9.20
2022-12-13T12:36:27.865Z,9.30
2022-12-13T12:40:00.400Z,9.00
2022-12-13T12:43:16.038Z,9.20
2022-12-13T12:47:01.536Z,10.10
2022-12-13T12:50:25.969Z,9.70
2022-12-13T12:53:43.082Z,10.70
2022-12-13T12:56:55.856Z,10.00
2022-12-13T13:00:06.010Z,10.50
2022-12-13T13:03:22.951Z,9.40
2022-12-13T13:06:34.563Z,10.00
2022-12-13T13:09:41.604Z,9.90
2022-12-13T13:12:47.506Z,9.90
2022-12-13T13:15:59.930Z,9.00
2022-12-13T13:19:06.903Z,19.20
2022-12-13T13:22:32.183Z,13.40
2022-12-13T13:25:54.342Z,11.50
2022-12-13T13:32:38.319Z,31.10
2022-12-13T13:35:53.791Z,12.70
2022-12-13T13:39:01.256Z,11.40
2022-12-13T13:42:20.202Z,9.40
2022-12-13T13:45:27.531Z,11.80
2022-12-13T13:48:49.400Z,11.30
2022-12-13T13:52:25.277Z,14.30
2022-12-13T13:55:57.091Z,14.80
2022-12-13T13:59:24.870Z,15.00
2022-12-13T14:03:01.384Z,19.00
2022-12-13T14:06:50.522Z,21.50
2022-12-13T14:10:07.948Z,17.90
2022-12-13T14:13:49.346Z,19.10
2022-12-13T14:17:25.387Z,19.80
2022-12-13T14:20:45.987Z,20.90
2022-12-13T14:24:15.516Z,20.10
2022-12-13T14:27:34.601Z,18.30
2022-12-13T14:30:47.942Z,15.10
2022-12-13T14:34:05.240Z,14.30
2022-12-13T14:37:23.776Z,14.10
2022-12-13T14:40:33.247Z,13.30
2022-12-13T14:43:39.094Z,13.50
2022-12-13T14:46:53.899Z,13.40
2022-12-13T14:49:59.846Z,12.00
2022-12-13T14:53:06.720Z,13.60
2022-12-13T14:56:27.316Z,13.40
2022-12-13T14:59:34.727Z,13.80
2022-12-13T15:02:53.565Z,14.90
2022-12-13T15:06:01.557Z,12.80
2022-12-13T15:09:11.305Z,11.90
2022-12-13T15:12:24.283Z,14.50
2022-12-13T15:15:34.024Z,20.70
2022-12-13T15:18:39.830Z,19.50
2022-12-13T15:22:01.691Z,17.80
2022-12-13T15:25:13.665Z,17.30
2022-12-13T15:28:21.855Z,15.10
2022-12-13T15:31:28.557Z,13.00
2022-12-13T15:37:47.122Z,15.50
2022-12-13T15:40:52.952Z,14.00
2022-12-13T15:44:02.212Z,13.00
2022-12-13T15:47:12.984Z,12.40
2022-12-13T15:50:37.242Z,17.10
2022-12-13T15:54:01.149Z,14.00
2022-12-13T15:57:16.223Z,13.80
2022-12-13T16:00:31.306Z,13.80
2022-12-13T16:06:52.953Z,16.10
2022-12-13T16:09:59.151Z,25.20
2022-12-13T16:13:08.073Z,22.50
2022-12-13T16:16:28.814Z,21.40
2022-12-13T16:19:34.514Z,19.50
2022-12-13T16:22:40.248Z,18.20
2022-12-13T16:25:45.965Z,17.30
2022-12-13T16:28:51.653Z,17.80
2022-12-13T16:32:01.394Z,17.00
2022-12-13T16:35:13.496Z,17.00
2022-12-13T16:38:26.657Z,16.30
2022-12-13T16:41:36.032Z,17.80
2022-12-13T16:44:42.330Z,19.30
2022-12-13T16:50:57.838Z,17.60
2022-12-13T16:54:03.797Z,16.70
2022-12-13T16:57:10.477Z,19.20
2022-12-13T17:00:17.689Z,20.60
2022-12-13T17:03:23.740Z,18.40
2022-12-13T17:06:29.679Z,20.80
2022-12-13T17:09:36.775Z,24.10
2022-12-13T17:12:42.441Z,23.00
2022-12-13T17:15:48.071Z,25.80
2022-12-13T17:19:05.265Z,23.20
2022-12-13T17:22:10.942Z,36.60
2022-12-13T17:25:17.208Z,43.80
2022-12-13T17:31:34.736Z,34.10
2022-12-13T17:34:41.229Z,36.20
2022-12-13T17:37:46.784Z,36.00
2022-12-13T17:40:56.589Z,35.90
2022-12-13T17:44:02.651Z,44.90
2022-12-13T17:47:08.340Z,43.10
2022-12-13T17:50:13.999Z,40.10
2022-12-13T17:53:19.645Z,37.80
2022-12-13T17:56:25.200Z,39.90
2022-12-13T17:59:30.733Z,36.10
2022-12-13T18:02:37.988Z,34.90
2022-12-13T18:05:43.786Z,33.30
2022-12-13T18:08:49.747Z,40.90
2022-12-13T18:11:55.399Z,42.40
2022-12-13T18:15:01.161Z,35.20
2022-12-13T18:18:11.666Z,36.10
2022-12-13T18:21:19.625Z,38.20
2022-12-13T18:24:25.396Z,58.80
2022-12-13T18:27:32.464Z,39.30
2022-12-13T18:30:39.108Z,46.70
2022-12-13T18:33:47.841Z,43.30
2022-12-13T18:36:53.741Z,43.90
2022-12-13T18:39:59.332Z,42.00
2022-12-13T18:43:05.024Z,43.10
2022-12-13T18:46:11.641Z,42.10
2022-12-13T18:49:17.263Z,41.80
2022-12-13T18:52:24.807Z,41.00
2022-12-13T18:55:30.861Z,40.60
2022-12-13T18:58:37.534Z,41.20
2022-12-13T19:01:43.276Z,41.80
2022-12-13T19:04:55.049Z,41.20
2022-12-13T19:08:01.284Z,44.20
2022-12-13T19:11:07.219Z,42.20
2022-12-13T19:14:12.834Z,41.40
2022-12-13T19:17:18.457Z,42.00
2022-12-13T19:20:24.257Z,40.00
2022-12-13T19:23:30.470Z,39.10
2022-12-13T19:29:40.347Z,46.30
2022-12-13T19:32:48.236Z,44.80
2022-12-13T19:35:54.729Z,38.80
2022-12-13T19:42:04.361Z,44.20
2022-12-13T19:45:10.795Z,46.30
2022-12-13T19:48:16.920Z,45.10
2022-12-13T19:51:22.723Z,43.60
2022-12-13T19:54:28.432Z,42.80
2022-12-13T19:57:36.145Z,41.70
2022-12-13T20:00:41.832Z,41.90
2022-12-13T20:03:48.418Z,37.30
2022-12-13T20:06:53.919Z,37.30
2022-12-13T20:09:59.553Z,38.60
2022-12-13T20:13:05.416Z,36.10
2022-12-13T20:16:17.799Z,35.30
2022-12-13T20:19:23.473Z,36.50
2022-12-13T20:22:29.125Z,36.60
2022-12-13T20:25:34.666Z,38.10
2022-12-13T20:28:40.660Z,38.20
2022-12-13T20:31:48.330Z,35.60
2022-12-13T20:34:55.275Z,34.90
2022-12-13T20:41:06.416Z,37.80
2022-12-13T20:44:14.152Z,37.60
2022-12-13T20:47:19.841Z,40.30
2022-12-13T20:50:25.421Z,41.30
2022-12-13T20:53:33.934Z,49.20
2022-12-13T20:56:40.835Z,50.90
2022-12-13T20:59:46.470Z,44.00
2022-12-13T21:02:52.013Z,42.70
2022-12-13T21:05:57.552Z,57.60
2022-12-13T21:09:04.202Z,40.40
2022-12-13T21:12:09.997Z,41.80
2022-12-13T21:15:15.751Z,40.70
2022-12-13T21:18:21.403Z,39.70
2022-12-13T21:21:28.592Z,39.40
2022-12-13T21:24:34.072Z,41.00
2022-12-13T21:27:40.305Z,45.40
2022-12-13T21:33:52.165Z,42.00
2022-12-13T21:36:57.770Z,45.00
2022-12-13T21:40:03.423Z,40.00
2022-12-13T21:43:09.070Z,47.00
2022-12-13T21:46:16.470Z,42.00
2022-12-13T21:49:21.983Z,38.60
2022-12-13T21:52:27.732Z,38.60
2022-12-13T21:55:41.188Z,37.10
2022-12-13T21:59:04.879Z,37.50
2022-12-13T22:02:19.245Z,39.60
2022-12-13T22:05:25.073Z,36.90
2022-12-13T22:08:30.747Z,40.10
2022-12-13T22:11:36.304Z,41.20
2022-12-13T22:14:41.944Z,38.50
2022-12-13T22:17:47.594Z,42.00
2022-12-13T22:20:59.490Z,54.80
2022-12-13T22:24:05.350Z,45.20
2022-12-13T22:27:11.105Z,43.00
2022-12-13T22:30:17.065Z,51.90
2022-12-13T22:33:22.605Z,73.10
2022-12-13T22:36:28.273Z,57.90
2022-12-13T22:39:34.020Z,44.00
2022-12-13T22:42:39.569Z,45.30
2022-12-13T22:45:45.263Z,45.90
2022-12-13T22:48:52.408Z,43.30
2022-12-13T22:51:57.958Z,43.50
2022-12-13T22:55:03.926Z,43.50
2022-12-13T22:58:09.669Z,45.50
2022-12-13T23:01:17.235Z,44.70
2022-12-13T23:04:23.124Z,48.20
2022-12-13T23:07:28.818Z,45.60
2022-12-13T23:10:52.136Z,45.90
2022-12-13T23:13:59.842Z,39.40
2022-12-13T23:17:05.771Z,40.40
2022-12-13T23:20:13.348Z,49.60
2022-12-13T23:23:19.154Z,49.70
2022-12-13T23:26:26.501Z,45.70
2022-12-13T23:29:32.402Z,43.10
2022-12-13T23:32:38.057Z,48.50
2022-12-13T23:35:43.604Z,48.50
2022-12-13T23:38:49.643Z,45.90
2022-12-13T23:41:55.221Z,41.70
2022-12-13T23:45:00.970Z,44.00
2022-12-13T23:48:07.405Z,51.00
2022-12-13T23:51:15.439Z,46.30
2022-12-13T23:54:20.995Z,82.90
2022-12-13T23:57:26.647Z,48.00
